Atlanta, NE

7:59 AM CDT on August 22, 2014 (GMT -0500)
Brewster | Change Station
CLOSE
Current Station
Airport
Location: Holdrege,
Elevation: 2310 ft
Nearby Weather Stations

Elev 2310 ft 40.45 °N, 99.34 °W | Updated 24 minutes ago

Clear
Clear
65 °F
Feels Like 65 °F
N
0
Wind Variable Wind from North

Today
High -- | Low -- °F
--% Chance of Precip.
Yesterday
High -- | Low -- °F
Precip. -- in
6:55 AM 8:24 PM
Waning Crescent, 8% visible
Pressure 29.96 in
Visibility 5.0 miles
Clouds Clear
Dew Point 64 °F
Humidity 94%
Rainfall 0.00 in
Snow Depth Not available.
UV 0 out of 12
Pollen 10.10 out of 12
Air Quality Not available.
Flu Activity Not available.
METAR KHDE 221235Z AUTO 00000KT 5SM BR CLR 19/18 A2996 RMK AO2 T01850176

More Conditions Fewer Conditions

Pressure 29.96 in
Visibility 5.0 miles
Clouds Clear
Dew Point 64 °F
Humidity 94%
Rainfall 0.00 in
Snow Depth Not available.
UV 0 out of 12
Pollen 10.10 out of 12
Air Quality Not available.
Flu Activity Not available.
METAR KHDE 221235Z AUTO 00000KT 5SM BR CLR 19/18 A2996 RMK AO2 T01850176

More Conditions Fewer Conditions

10-Day Weather Forecast

Almanac

Astronomy

Aug. 22, 2014 Rise Set
Actual Time 6:55 AM CDT 8:24 PM CDT
Civil Twilight 6:26 AM CDT 8:53 PM CDT
Nautical Twilight 5:51 AM CDT 9:27 PM CDT
Astronomical Twilight 5:15 AM CDT 10:04 PM CDT
Moon 4:18 AM CDT 6:34 PM CDT
Length of Visible Light 14h 26m
Length of Day
13h 29m
Tomorrow will be 2m 28s shorter.
Waning Crescent, 8% of the Moon is Illuminated
Today
Waning Crescent
Aug 25
New
Sep 2
First Quarter
Sep 8
Full
Sep 15
Last Quarter

Today's Extremes

State Highs State Lows

Community

WunderPhotos

Upload Photos

1,746,158 photos uploaded!

WunderBlogs® & News

Nearby

Snow Depth

Station Depth Elevation
No new snow has been reported.

Earthquake Activity

City Distance Mag. Time & Date
No recent earthquake activity has been reported nearby.
Minimum magnitude displayed is 2.5.

Coastal Water Temperatures

Place Temperature
No Stations Reporting

Nearby Weather Stations